Airfield :
LOGIN :

Register | Disclaimer

   EN    FR    IT 

 










Legend :    VFR   Marginal VFR   IFR   Intensive IFR   Very Intensive IFR
Visi :
Ceiling :
>= 8 km
>= 3000ft
5 to 8 km
1000 to 3000 ft
1500m to 5 km
500 to 1000 ft
800 to 1500m
200 to 500 ft
< 800m
< 200 ft
Symbols :   Thunderstorms  Fog  Heavy snow  Heavy precipitations  Wind > 20 kt
SIGMETs :     Misc.  Thunderstorms  Icing  Turbulence  Mountain Waves  Volcanic Ashes






- Airport Elevation : 42 ft
- IATA code : LMO


EGQS - Lossiemouth

CURRENT METAR :
  • 131650Z 20001KT 9999 FEW014CB 01/M01 Q0997 NOSIG RMK BLU BLU

EXPIRED METARs :
  • 131621Z 05002KT 9999 VCSH FEW014CB 03/01 Q0997 NOSIG RMK BLU BLU
  • 131550Z 05005KT 9999 FEW015CB 03/01 Q0996 TEMPO 7000 -SHRASN SCT015CB RMK BLU TEMPO WHT
  • 131519Z 03008KT 9999 VCSH FEW014CB 04/02 Q0996 TEMPO 7000 -SHRASN SCT015CB RMK BLU TEMPO WHT
  • 131450Z 03004KT 9999 VCSH FEW012 FEW014CB 04/01 Q0996 TEMPO 7000 -SHRASN SCT015CB RMK BLU TEMPO WHT
  • 131420Z 02003KT 9999 VCSH FEW014CB 04/01 Q0996 TEMPO 7000 -SHRASN SCT015CB RMK BLU TEMPO WHT

TAF TAF EGQS
Valid from the 13 at 15:00 until the 14 at 09:00 UTC


131334Z 1315/1409 VRB03KT 9999 FEW020CB
PROB30
TEMPO 1315/1318 7000 -SHRASN SCT020CB
PROB40
TEMPO 1318/1409 4000 SHRASN SHGS SCT018CB



MET'MAP, your aeronautical weather chart ! - Copyright ORBIFLY December 2007 - Disclaimer

ORBIFLY MET'MAP TEAM :

Programming & Development : Alexandra Zaïnal
Concept & Development : Baudouin d'Aumeries
Co-Development & Prog : Marc-Olivier Méhu
Technical & hardware support : Manuel Goepfert

Contact : metmap@orbifly.com




SOURCES & CREDITS :

   NOAA